Time;durP1;ratioP1;P1;durP2;ratioP2;P2;SDS_P1;SDS_P2;PMS_P1;PMS_P2;Temp;Humidity;BMP_temperature;BMP_pressure;BME280_temperature;BME280_humidity;BME280_pressure;Samples;Min_cycle;Max_cycle;Signal;HPM_P1;HPM_P2
2020/12/21 00:02:16;;;;;;;26.15;14.82;;;;;;;4.24;94.61;102054.03;4984916;28;20038;-77
2020/12/21 00:04:42;;;;;;;24.25;15.65;;;;;;;4.22;94.76;102050.63;4985698;28;20045;-77
2020/12/21 00:07:07;;;;;;;25.45;14.85;;;;;;;4.01;95.03;102047.31;4993619;28;20150;-77
2020/12/21 00:09:33;;;;;;;27.85;15.35;;;;;;;3.97;95.58;102050.97;4997406;28;20030;-77
2020/12/21 00:11:58;;;;;;;26.02;15.25;;;;;;;4.00;95.36;102048.22;4999281;28;20039;-78
2020/12/21 00:14:24;;;;;;;22.63;14.90;;;;;;;3.94;95.28;102040.72;4993404;28;20030;-77
2020/12/21 00:16:51;;;;;;;31.40;14.95;;;;;;;4.09;95.34;102043.44;5001179;28;20073;-77
2020/12/21 00:19:18;;;;;;;29.92;15.27;;;;;;;3.99;95.34;102039.59;4982228;28;20295;-78
2020/12/21 00:21:45;;;;;;;28.70;16.17;;;;;;;3.98;95.23;102032.72;4988479;28;20113;-77
2020/12/21 00:24:11;;;;;;;25.85;15.30;;;;;;;3.96;95.29;102042.34;5000931;28;20057;-79
2020/12/21 00:26:37;;;;;;;29.55;15.73;;;;;;;3.93;95.41;102039.03;4971634;28;20034;-78
2020/12/21 00:29:04;;;;;;;27.50;16.50;;;;;;;3.93;95.42;102044.22;5002047;28;20520;-78
2020/12/21 00:31:32;;;;;;;31.15;16.80;;;;;;;3.88;95.15;102045.28;4993585;28;20137;-78
2020/12/21 00:33:59;;;;;;;32.85;18.10;;;;;;;3.87;95.35;102043.59;4984706;28;20030;-77
2020/12/21 00:36:25;;;;;;;30.10;16.60;;;;;;;3.88;95.42;102047.88;4983891;28;20042;-76
2020/12/21 00:38:51;;;;;;;33.28;18.02;;;;;;;3.87;95.51;102038.41;4984114;28;20117;-76
2020/12/21 00:41:19;;;;;;;31.98;17.05;;;;;;;3.89;95.74;102054.75;5001422;28;20046;-79
2020/12/21 00:43:46;;;;;;;27.15;16.50;;;;;;;3.82;95.33;102060.28;4983660;28;20050;-78
2020/12/21 00:46:14;;;;;;;27.17;16.20;;;;;;;3.67;95.51;102035.88;4986518;28;20041;-79
2020/12/21 00:48:41;;;;;;;29.23;17.05;;;;;;;3.68;95.76;102042.78;4991205;28;20041;-79
2020/12/21 00:51:08;;;;;;;28.55;16.40;;;;;;;3.71;95.68;102050.41;4997838;28;20038;-78
2020/12/21 00:53:33;;;;;;;29.55;16.52;;;;;;;3.64;95.65;102055.03;5003811;28;20062;-78
2020/12/21 00:56:02;;;;;;;30.75;17.13;;;;;;;3.51;95.98;102041.78;4997637;28;20049;-79
2020/12/21 00:58:30;;;;;;;33.15;17.23;;;;;;;3.51;96.12;102043.53;5010655;28;20026;-78
2020/12/21 01:00:56;;;;;;;28.73;16.98;;;;;;;3.58;95.82;102044.09;4998386;28;20038;-77
2020/12/21 01:03:22;;;;;;;29.10;17.23;;;;;;;3.53;96.28;102046.91;4990978;28;20428;-77
2020/12/21 01:05:47;;;;;;;34.28;17.05;;;;;;;3.62;95.76;102053.44;4967183;28;20531;-78
2020/12/21 01:08:13;;;;;;;33.22;17.35;;;;;;;3.60;95.91;102056.09;4973299;28;20019;-76
2020/12/21 01:10:39;;;;;;;32.95;18.23;;;;;;;3.59;96.09;102058.75;4990376;28;20034;-77
2020/12/21 01:13:04;;;;;;;34.10;17.02;;;;;;;3.60;95.88;102052.63;4993729;28;20518;-76
2020/12/21 01:15:30;;;;;;;27.27;16.75;;;;;;;3.60;95.74;102058.69;4992896;28;20050;-78
2020/12/21 01:17:55;;;;;;;25.60;15.35;;;;;;;3.64;95.98;102056.81;4965450;28;20030;-78
2020/12/21 01:20:21;;;;;;;31.70;16.80;;;;;;;3.72;95.63;102072.03;4980336;28;20463;-78
2020/12/21 01:22:47;;;;;;;33.30;17.02;;;;;;;3.70;95.75;102066.91;5004501;28;20138;-79
2020/12/21 01:25:12;;;;;;;30.75;16.85;;;;;;;3.76;95.83;102058.81;4964617;28;20066;-76
2020/12/21 01:27:38;;;;;;;30.05;16.25;;;;;;;3.81;95.70;102063.81;4958942;28;20034;-78
2020/12/21 01:30:04;;;;;;;26.90;14.75;;;;;;;3.80;95.28;102062.13;5007964;28;20114;-77
2020/12/21 01:32:30;;;;;;;28.33;15.30;;;;;;;3.79;95.42;102053.50;4989824;28;20220;-77
2020/12/21 01:34:56;;;;;;;30.33;15.32;;;;;;;3.86;95.77;102067.88;5005823;28;20478;-77
2020/12/21 01:37:22;;;;;;;27.02;14.70;;;;;;;3.88;95.40;102063.47;4973796;28;20034;-78
2020/12/21 01:39:50;;;;;;;30.02;14.40;;;;;;;3.91;95.42;102067.66;4967546;28;20039;-78
2020/12/21 01:42:16;;;;;;;26.75;14.32;;;;;;;3.95;95.47;102063.19;4967644;28;20101;-79
2020/12/21 01:44:47;;;;;;;28.33;14.13;;;;;;;3.97;95.22;102069.13;4971115;28;20041;-77
2020/12/21 01:47:15;;;;;;;29.50;13.43;;;;;;;3.97;94.94;102069.97;4979244;28;20069;-78
2020/12/21 01:49:40;;;;;;;20.15;12.73;;;;;;;3.98;94.98;102073.44;5002162;28;20037;-78
2020/12/21 01:52:06;;;;;;;24.73;13.23;;;;;;;3.94;94.96;102070.13;4975025;28;20039;-77
2020/12/21 01:54:33;;;;;;;23.38;12.57;;;;;;;3.87;94.81;102072.16;5004755;28;20026;-78
2020/12/21 01:56:59;;;;;;;30.67;12.88;;;;;;;3.79;95.35;102066.47;4993678;28;20034;-76
2020/12/21 01:59:25;;;;;;;17.48;11.15;;;;;;;3.79;95.25;102063.88;4991803;28;20038;-77
2020/12/21 02:01:52;;;;;;;26.67;12.02;;;;;;;3.78;95.29;102061.34;4963343;28;20485;-77
2020/12/21 02:04:18;;;;;;;18.40;11.38;;;;;;;3.82;94.95;102068.91;4978919;28;20080;-78
2020/12/21 02:06:45;;;;;;;23.85;11.75;;;;;;;3.85;95.05;102066.19;4992274;28;20030;-78
2020/12/21 02:09:10;;;;;;;26.95;12.93;;;;;;;3.86;95.63;102060.09;4990786;28;20097;-77
2020/12/21 02:11:42;;;;;;;18.52;12.10;;;;;;;3.97;95.17;102069.13;4976714;28;20084;-79
2020/12/21 02:14:09;;;;;;;24.95;12.13;;;;;;;4.09;95.25;102065.97;4980118;28;20053;-78
2020/12/21 02:16:35;;;;;;;18.40;11.13;;;;;;;4.08;95.14;102067.72;4972874;28;20042;-77
2020/12/21 02:19:01;;;;;;;25.23;11.48;;;;;;;4.15;95.02;102064.84;4989181;28;20038;-77
2020/12/21 02:21:26;;;;;;;20.13;11.55;;;;;;;4.23;94.89;102075.72;4987563;28;20511;-77
2020/12/21 02:23:52;;;;;;;22.67;11.88;;;;;;;4.22;95.19;102074.00;4986857;28;20027;-77
2020/12/21 02:26:18;;;;;;;19.98;11.40;;;;;;;4.23;94.91;102065.31;4982057;28;20065;-78
2020/12/21 02:28:50;;;;;;;24.13;11.43;;;;;;;4.19;95.00;102067.22;4991363;28;20077;-76
2020/12/21 02:31:15;;;;;;;25.40;11.15;;;;;;;4.27;94.82;102062.50;4967447;28;20030;-78
2020/12/21 02:33:41;;;;;;;22.13;11.80;;;;;;;4.27;95.08;102066.84;4989975;28;20070;-77
2020/12/21 02:36:07;;;;;;;29.80;11.48;;;;;;;4.23;95.07;102060.13;4994016;28;20493;-78
2020/12/21 02:38:32;;;;;;;24.55;12.05;;;;;;;4.27;94.97;102066.84;4988381;28;20090;-78
2020/12/21 02:40:58;;;;;;;21.13;11.40;;;;;;;4.35;95.06;102071.69;4969037;28;20060;-77
2020/12/21 02:43:23;;;;;;;21.23;11.05;;;;;;;4.37;94.96;102067.25;4982753;28;20066;-79
2020/12/21 02:45:49;;;;;;;21.50;11.05;;;;;;;4.38;95.10;102074.13;4971400;28;20125;-77
2020/12/21 02:48:15;;;;;;;21.02;11.15;;;;;;;4.33;94.82;102071.75;4994391;28;20440;-78
2020/12/21 02:50:42;;;;;;;24.42;11.43;;;;;;;4.38;95.40;102068.94;4978982;28;20026;-78
2020/12/21 02:53:07;;;;;;;22.83;11.65;;;;;;;4.37;95.03;102055.13;4975709;28;20048;-78
2020/12/21 02:55:33;;;;;;;23.00;11.48;;;;;;;4.35;95.04;102048.28;4986025;28;20102;-77
2020/12/21 02:57:59;;;;;;;22.52;11.68;;;;;;;4.43;94.56;102056.56;4990865;28;20456;-77
2020/12/21 03:00:24;;;;;;;22.45;12.18;;;;;;;4.39;95.17;102060.22;4976809;28;20109;-78
2020/12/21 03:02:50;;;;;;;24.58;11.45;;;;;;;4.37;95.21;102059.44;4991135;28;20042;-78
2020/12/21 03:05:15;;;;;;;21.25;11.68;;;;;;;4.25;95.23;102048.72;4985911;28;20037;-78
2020/12/21 03:07:41;;;;;;;30.30;12.05;;;;;;;4.33;95.30;102057.91;4973400;28;20034;-78
2020/12/21 03:10:06;;;;;;;21.17;11.77;;;;;;;4.26;95.13;102060.00;5011503;28;20055;-80
2020/12/21 03:12:32;;;;;;;27.10;12.93;;;;;;;4.26;95.45;102058.22;5010713;28;20038;-77
2020/12/21 03:15:10;;;;;;;22.77;11.85;;;;;;;4.25;95.17;102066.91;4970886;28;20045;-78
2020/12/21 03:17:36;;;;;;;23.25;12.60;;;;;;;4.20;95.29;102068.03;4996926;28;20035;-78
2020/12/21 03:20:02;;;;;;;29.25;12.80;;;;;;;4.23;95.20;102071.34;4996560;28;20036;-78
2020/12/21 03:22:27;;;;;;;28.13;13.02;;;;;;;4.15;95.06;102073.47;4996490;28;20034;-78
2020/12/21 03:24:53;;;;;;;29.75;12.57;;;;;;;4.19;95.55;102077.59;4964144;28;20042;-78
2020/12/21 03:27:18;;;;;;;29.10;12.70;;;;;;;4.20;95.68;102073.25;4995698;28;20439;-79
2020/12/21 03:29:44;;;;;;;26.02;12.43;;;;;;;4.25;95.06;102074.72;4997090;28;20146;-77
2020/12/21 03:32:10;;;;;;;23.40;12.70;;;;;;;4.23;95.38;102073.13;4996261;28;20400;-75
2020/12/21 03:34:35;;;;;;;23.33;11.55;;;;;;;4.16;95.48;102062.16;4965734;28;20062;-78
2020/12/21 03:37:01;;;;;;;24.80;12.43;;;;;;;4.20;95.36;102070.66;4976686;28;20101;-78
2020/12/21 03:39:26;;;;;;;26.13;12.13;;;;;;;4.15;95.45;102064.84;4978294;28;20034;-78
2020/12/21 03:41:52;;;;;;;32.38;12.48;;;;;;;4.15;95.75;102064.84;4996624;28;20044;-77
2020/12/21 03:44:17;;;;;;;28.13;12.77;;;;;;;4.10;95.10;102062.44;4979873;28;20038;-78
2020/12/21 03:46:43;;;;;;;29.63;13.50;;;;;;;4.14;95.25;102070.94;5012263;28;20042;-78
2020/12/21 03:49:08;;;;;;;22.75;11.73;;;;;;;4.15;95.16;102070.88;4995991;28;20029;-79
2020/12/21 03:51:34;;;;;;;30.92;13.18;;;;;;;4.19;95.25;102077.59;4976044;28;20437;-78
2020/12/21 03:53:59;;;;;;;25.63;12.52;;;;;;;4.23;95.41;102067.91;4984256;28;20034;-79
2020/12/21 03:56:25;;;;;;;22.63;12.52;;;;;;;4.22;95.56;102072.28;5024949;28;20042;-78
2020/12/21 03:58:50;;;;;;;27.25;12.30;;;;;;;4.31;95.42;102070.16;5014950;28;20368;-77
2020/12/21 04:01:16;;;;;;;27.88;12.38;;;;;;;4.32;95.25;102066.66;4990438;28;20038;-78
2020/12/21 04:03:41;;;;;;;23.98;11.15;;;;;;;4.36;95.08;102063.81;4979682;28;20035;-78
2020/12/21 04:06:07;;;;;;;28.30;11.95;;;;;;;4.40;95.36;102059.31;4995388;28;20404;-79
2020/12/21 04:08:32;;;;;;;27.80;11.77;;;;;;;4.44;95.06;102053.88;4997162;28;20045;-77
2020/12/21 04:10:59;;;;;;;27.25;12.63;;;;;;;4.53;94.76;102060.41;4979192;28;20042;-78
2020/12/21 04:13:26;;;;;;;27.17;12.07;;;;;;;4.59;94.88;102067.06;4963440;28;20038;-79
2020/12/21 04:15:53;;;;;;;25.70;11.80;;;;;;;4.64;94.40;102062.47;4976465;28;20095;-77
2020/12/21 04:18:19;;;;;;;27.23;11.73;;;;;;;4.65;94.98;102065.00;4994723;28;20046;-77
2020/12/21 04:20:44;;;;;;;29.20;12.95;;;;;;;4.72;94.52;102067.28;4967507;28;20765;-77
2020/12/21 04:23:10;;;;;;;24.67;12.48;;;;;;;4.75;94.31;102064.56;4979671;28;20042;-77
2020/12/21 04:25:35;;;;;;;27.60;12.43;;;;;;;4.75;94.04;102062.78;4963634;28;20030;-77
2020/12/21 04:28:01;;;;;;;24.45;11.55;;;;;;;4.77;94.35;102062.72;5013594;28;20057;-79
2020/12/21 04:30:26;;;;;;;20.65;11.57;;;;;;;4.77;94.18;102065.31;5005645;28;20477;-78
2020/12/21 04:32:52;;;;;;;37.65;11.60;;;;;;;4.73;94.30;102055.97;5011118;28;20027;-77
2020/12/21 04:35:18;;;;;;;24.15;11.85;;;;;;;4.78;94.25;102065.22;4995010;28;20582;-76
2020/12/21 04:37:44;;;;;;;25.17;11.88;;;;;;;4.81;94.36;102064.25;4978907;28;20038;-77
2020/12/21 04:40:09;;;;;;;28.20;11.80;;;;;;;4.77;94.26;102058.34;4960600;28;20508;-78
2020/12/21 04:42:51;;;;;;;26.90;11.95;;;;;;;4.91;94.76;102064.63;4976066;28;20038;-79
2020/12/21 04:45:23;;;;;;;25.65;11.38;;;;;;;4.93;94.40;102062.78;4987601;28;20036;-77
2020/12/21 04:47:48;;;;;;;24.30;12.15;;;;;;;4.99;94.17;102065.06;4997035;28;20034;-77
2020/12/21 04:50:16;;;;;;;24.65;10.82;;;;;;;5.00;94.14;102067.59;4962440;28;20168;-78
2020/12/21 04:52:51;;;;;;;25.42;10.93;;;;;;;5.04;93.88;102068.28;4986185;28;20035;-78
2020/12/21 04:55:20;;;;;;;23.00;11.48;;;;;;;5.07;94.04;102058.56;5010373;28;20035;-78
2020/12/21 04:57:57;;;;;;;26.08;11.52;;;;;;;5.18;93.55;102071.03;4979744;28;20177;-78
2020/12/21 05:00:24;;;;;;;28.52;10.88;;;;;;;5.06;93.97;102049.06;4987148;28;20057;-78
2020/12/21 05:02:49;;;;;;;22.20;11.45;;;;;;;5.19;93.78;102061.44;4974662;28;20394;-77
2020/12/21 05:05:30;;;;;;;21.85;11.07;;;;;;;5.16;93.72;102059.00;4982825;28;20101;-77
2020/12/21 05:08:14;;;;;;;27.73;12.43;;;;;;;5.20;93.18;102061.38;4999122;28;20033;-78
2020/12/21 05:11:05;;;;;;;24.73;11.15;;;;;;;5.17;93.51;102058.09;5001021;28;20043;-78
2020/12/21 05:13:34;;;;;;;24.58;11.90;;;;;;;5.21;93.49;102055.22;4994975;28;20038;-76
2020/12/21 05:16:02;;;;;;;27.02;12.32;;;;;;;5.23;93.56;102057.75;4981925;28;20041;-77
2020/12/21 05:18:29;;;;;;;23.48;11.20;;;;;;;5.29;93.38;102059.22;4989502;28;20041;-77
2020/12/21 05:21:05;;;;;;;25.48;11.63;;;;;;;5.27;92.91;102061.88;4982135;28;20129;-79
2020/12/21 05:23:31;;;;;;;25.70;12.27;;;;;;;5.33;93.07;102063.31;5014731;28;20034;-78
2020/12/21 05:26:02;;;;;;;25.55;11.60;;;;;;;5.36;93.35;102069.22;4987044;28;20501;-78
2020/12/21 05:28:29;;;;;;;23.27;11.60;;;;;;;5.37;93.03;102063.09;4966561;28;20034;-77
2020/12/21 05:30:57;;;;;;;25.17;11.85;;;;;;;5.35;93.13;102061.47;4999017;28;20034;-78
2020/12/21 05:33:23;;;;;;;31.15;10.90;;;;;;;5.36;92.78;102065.78;4994376;28;20042;-78
2020/12/21 05:35:49;;;;;;;27.08;11.93;;;;;;;5.39;93.35;102065.63;5001851;28;20029;-77
2020/12/21 05:38:22;;;;;;;25.52;11.27;;;;;;;5.40;92.86;102067.28;5007168;28;20056;-78
2020/12/21 05:40:48;;;;;;;29.20;10.95;;;;;;;5.35;92.76;102064.94;4964217;28;20031;-78
2020/12/21 05:43:27;;;;;;;27.63;11.25;;;;;;;5.38;93.04;102066.53;4962737;28;20374;-78
2020/12/21 05:46:04;;;;;;;25.77;11.25;;;;;;;5.40;92.76;102062.91;4963919;28;20039;-77
2020/12/21 05:48:35;;;;;;;25.20;10.10;;;;;;;5.44;92.36;102066.22;4990366;28;20034;-79
2020/12/21 05:51:03;;;;;;;26.30;11.20;;;;;;;5.51;92.25;102064.13;4966482;28;20034;-81
2020/12/21 05:53:43;;;;;;;30.33;10.65;;;;;;;5.49;92.20;102072.00;4982412;28;20285;-80
2020/12/21 05:56:10;;;;;;;28.55;10.98;;;;;;;5.52;92.19;102063.19;4979368;28;20146;-80
2020/12/21 05:58:37;;;;;;;24.27;10.85;;;;;;;5.55;91.81;102070.84;4980174;28;20627;-79
2020/12/21 06:01:05;;;;;;;23.67;10.43;;;;;;;5.56;92.11;102062.97;4985042;28;20447;-78
2020/12/21 06:03:40;;;;;;;30.85;10.95;;;;;;;5.52;92.21;102060.59;4992721;28;20103;-78
2020/12/21 06:06:08;;;;;;;29.42;10.75;;;;;;;5.53;92.09;102063.13;4978929;28;20042;-79
2020/12/21 06:08:35;;;;;;;22.38;9.95;;;;;;;5.55;92.58;102070.84;4978944;28;20481;-78
2020/12/21 06:11:21;;;;;;;32.88;11.48;;;;;;;5.59;92.16;102070.59;4998648;28;20040;-78
2020/12/21 06:13:56;;;;;;;28.25;10.73;;;;;;;5.56;92.31;102067.34;4978038;28;20047;-78
2020/12/21 06:16:23;;;;;;;24.48;11.20;;;;;;;5.61;91.66;102066.19;4967552;28;20472;-80
2020/12/21 06:19:08;;;;;;;26.40;9.63;;;;;;;5.61;92.14;102070.53;4977674;28;20113;-79
2020/12/21 06:21:37;;;;;;;23.85;9.88;;;;;;;5.62;92.28;102067.84;4965651;28;20035;-79
2020/12/21 06:24:14;;;;;;;23.17;9.77;;;;;;;5.62;91.60;102059.19;4995018;28;20034;-78
2020/12/21 06:26:39;;;;;;;28.85;11.13;;;;;;;5.61;91.97;102065.31;4992356;28;20035;-78
2020/12/21 06:29:08;;;;;;;26.08;9.27;;;;;;;5.54;91.69;102063.94;4972459;28;20038;-78
2020/12/21 06:31:42;;;;;;;26.98;10.50;;;;;;;5.63;91.52;102077.34;5013306;28;20034;-77
2020/12/21 06:34:10;;;;;;;29.30;10.25;;;;;;;5.67;91.13;102080.63;4986235;28;20054;-78
2020/12/21 06:36:36;;;;;;;21.50;9.98;;;;;;;5.64;91.60;102076.41;4974359;28;20054;-79
2020/12/21 06:39:04;;;;;;;20.23;9.00;;;;;;;5.64;91.76;102083.38;5000105;28;20124;-78
2020/12/21 06:41:29;;;;;;;21.10;8.35;;;;;;;5.63;91.57;102079.94;5016310;28;20416;-78
2020/12/21 06:44:06;;;;;;;26.95;9.40;;;;;;;5.61;91.30;102080.94;4999803;28;20034;-78
2020/12/21 06:46:33;;;;;;;27.42;9.07;;;;;;;5.59;92.03;102080.19;5016207;28;20037;-77
2020/12/21 06:49:09;;;;;;;23.45;9.00;;;;;;;5.63;91.16;102077.34;5001238;28;20034;-77
2020/12/21 06:51:38;;;;;;;34.58;10.32;;;;;;;5.59;91.89;102082.78;4975734;28;20073;-78
2020/12/21 06:54:05;;;;;;;28.95;9.35;;;;;;;5.61;91.69;102084.41;4974514;28;20037;-78
2020/12/21 06:56:31;;;;;;;25.45;9.20;;;;;;;5.59;91.79;102083.59;5006839;28;20031;-79
2020/12/21 06:58:58;;;;;;;25.10;8.52;;;;;;;5.58;91.23;102086.31;4978029;28;20519;-77
2020/12/21 07:01:26;;;;;;;21.80;8.68;;;;;;;5.50;91.79;102084.13;4974953;28;20045;-79
2020/12/21 07:03:52;;;;;;;24.55;8.13;;;;;;;5.37;91.43;102086.53;4981834;28;20491;-78
2020/12/21 07:06:18;;;;;;;24.63;8.93;;;;;;;5.33;91.32;102082.41;4998374;28;20109;-78
2020/12/21 07:08:45;;;;;;;29.20;9.40;;;;;;;5.25;91.72;102090.59;5005847;28;20050;-78
2020/12/21 07:11:18;;;;;;;29.60;9.13;;;;;;;5.18;91.94;102090.97;4981583;28;20116;-79
2020/12/21 07:13:48;;;;;;;23.77;9.15;;;;;;;5.06;92.30;102089.84;4998008;28;20393;-76
2020/12/21 07:16:16;;;;;;;28.52;9.25;;;;;;;4.97;92.47;102092.91;4997471;28;20105;-78
2020/12/21 07:18:41;;;;;;;26.20;9.05;;;;;;;4.96;92.14;102099.88;4978451;28;20034;-78
2020/12/21 07:21:09;;;;;;;22.23;8.80;;;;;;;4.94;92.52;102100.88;4997950;28;20113;-79
2020/12/21 07:23:35;;;;;;;38.75;9.93;;;;;;;4.81;92.67;102104.06;4979062;28;20045;-77
2020/12/21 07:26:01;;;;;;;25.50;9.02;;;;;;;4.79;93.03;102105.91;4978399;28;20109;-77
2020/12/21 07:28:28;;;;;;;22.58;8.38;;;;;;;4.75;93.13;102108.75;5000478;28;20030;-77
2020/12/21 07:31:12;;;;;;;23.35;8.73;;;;;;;4.73;92.96;102107.94;4964661;28;20048;-77
2020/12/21 07:33:49;;;;;;;30.40;9.25;;;;;;;4.63;92.74;102110.16;4964026;28;20037;-77
2020/12/21 07:36:16;;;;;;;28.35;8.98;;;;;;;4.62;92.85;102114.53;4980738;28;20110;-77
2020/12/21 07:38:42;;;;;;;29.63;9.45;;;;;;;4.53;93.38;102107.19;4981082;28;20034;-78
2020/12/21 07:41:08;;;;;;;23.23;9.48;;;;;;;4.59;93.23;102100.84;4997877;28;20041;-77
2020/12/21 07:43:36;;;;;;;25.92;9.02;;;;;;;4.56;93.02;102103.56;4996945;28;20088;-77
2020/12/21 07:46:05;;;;;;;18.75;8.68;;;;;;;4.54;93.11;102103.69;5014462;28;20061;-78
2020/12/21 07:48:34;;;;;;;27.13;8.63;;;;;;;4.53;93.02;102104.56;5011014;28;20040;-78
2020/12/21 07:51:03;;;;;;;23.40;9.27;;;;;;;4.44;94.00;102108.44;4995967;28;20034;-79
2020/12/21 07:53:37;;;;;;;30.27;9.40;;;;;;;4.41;93.72;102102.59;5003881;28;20619;-78
2020/12/21 07:56:03;;;;;;;30.33;9.38;;;;;;;4.42;93.31;102102.47;5021731;28;20042;-78
2020/12/21 07:58:34;;;;;;;24.92;8.63;;;;;;;4.38;93.45;102102.72;4977109;28;20497;-78
2020/12/21 08:01:00;;;;;;;36.70;8.35;;;;;;;4.40;93.84;102113.88;4994243;28;20623;-77
2020/12/21 08:03:27;;;;;;;23.65;9.55;;;;;;;4.39;93.69;102113.03;4993950;28;20034;-79
2020/12/21 08:06:06;;;;;;;21.90;8.95;;;;;;;4.34;93.83;102101.19;4970304;28;20030;-78
2020/12/21 08:08:32;;;;;;;24.63;8.95;;;;;;;4.36;93.37;102107.97;4980484;28;20030;-78
2020/12/21 08:10:58;;;;;;;26.73;8.48;;;;;;;4.39;93.59;102109.56;4980027;28;20030;-77
2020/12/21 08:13:24;;;;;;;22.15;7.95;;;;;;;4.40;93.55;102116.47;4996322;28;20034;-77
2020/12/21 08:15:49;;;;;;;27.65;9.07;;;;;;;4.43;93.45;102106.78;4996780;28;20484;-77
2020/12/21 08:18:15;;;;;;;25.02;8.48;;;;;;;4.47;93.06;102110.06;4996510;28;20037;-78
2020/12/21 08:20:51;;;;;;;29.80;8.82;;;;;;;4.47;93.17;102113.50;4996507;28;20033;-77
2020/12/21 08:23:24;;;;;;;20.77;7.65;;;;;;;4.49;93.21;102110.84;4981959;28;20027;-78
2020/12/21 08:25:50;;;;;;;26.70;7.82;;;;;;;4.54;93.45;102113.19;4965862;28;20082;-76
2020/12/21 08:28:29;;;;;;;22.30;7.85;;;;;;;4.56;92.85;102116.56;4969101;28;20085;-78
2020/12/21 08:31:09;;;;;;;24.27;7.82;;;;;;;4.57;93.09;102107.88;5000782;28;20061;-78
2020/12/21 08:33:40;;;;;;;22.92;6.95;;;;;;;4.47;93.13;102112.66;4999920;28;20030;-78
2020/12/21 08:36:18;;;;;;;22.75;6.85;;;;;;;4.50;93.02;102109.91;5001199;28;20042;-78
2020/12/21 08:38:44;;;;;;;18.58;6.35;;;;;;;4.48;92.97;102106.53;5000462;28;20046;-79
2020/12/21 08:41:10;;;;;;;27.35;6.97;;;;;;;4.57;92.96;102110.47;5028169;28;20099;-80
2020/12/21 08:43:36;;;;;;;19.30;6.53;;;;;;;4.58;93.05;102114.75;5005016;28;20432;-77
2020/12/21 08:46:09;;;;;;;24.65;6.20;;;;;;;4.64;92.84;102114.47;5000913;28;20034;-79
2020/12/21 08:48:39;;;;;;;21.25;6.10;;;;;;;4.60;92.40;102108.56;4991537;28;20065;-78
2020/12/21 08:51:05;;;;;;;23.73;6.35;;;;;;;4.68;92.39;102109.03;4983431;28;20066;-78
2020/12/21 08:53:30;;;;;;;21.38;5.57;;;;;;;4.64;92.95;102107.50;4967958;28;20038;-78
2020/12/21 08:55:56;;;;;;;22.73;5.57;;;;;;;4.66;92.19;102104.81;4998903;28;20404;-78
2020/12/21 08:58:21;;;;;;;23.20;6.28;;;;;;;4.70;92.97;102097.72;5015672;28;20039;-78
2020/12/21 09:00:47;;;;;;;22.92;6.60;;;;;;;4.64;93.02;102096.25;5013558;28;20039;-78
2020/12/21 09:03:12;;;;;;;24.52;5.55;;;;;;;4.61;93.06;102106.81;4998203;28;20121;-78
2020/12/21 09:05:38;;;;;;;21.52;5.70;;;;;;;4.60;93.61;102111.16;4982716;28;20038;-77
2020/12/21 09:08:04;;;;;;;24.17;5.40;;;;;;;4.75;92.53;102103.56;5015075;28;20558;-79
2020/12/21 09:10:29;;;;;;;14.40;4.70;;;;;;;4.75;92.79;102109.59;4982016;28;20038;-78
2020/12/21 09:12:55;;;;;;;19.88;5.10;;;;;;;4.76;92.47;102116.44;4978936;28;20046;-77
2020/12/21 09:15:20;;;;;;;16.67;5.35;;;;;;;4.80;92.95;102128.41;4961687;28;20038;-77
2020/12/21 09:17:46;;;;;;;19.70;5.07;;;;;;;4.85;92.98;102126.41;4962480;28;20073;-77
2020/12/21 09:20:11;;;;;;;18.70;5.13;;;;;;;4.94;91.61;102121.69;4994885;28;20121;-78
2020/12/21 09:22:37;;;;;;;18.23;5.18;;;;;;;5.01;92.09;102116.09;4991020;28;20035;-78
2020/12/21 09:25:03;;;;;;;15.77;4.70;;;;;;;5.17;91.14;102113.53;4978115;28;20158;-77
2020/12/21 09:27:29;;;;;;;18.77;4.63;;;;;;;5.22;91.46;102113.31;4952663;28;20038;-78
2020/12/21 09:29:54;;;;;;;17.35;4.88;;;;;;;5.25;90.74;102113.16;4987880;28;20038;-77
2020/12/21 09:32:20;;;;;;;20.67;5.03;;;;;;;5.26;90.21;102113.09;4997669;28;20488;-78
2020/12/21 09:34:45;;;;;;;19.65;4.80;;;;;;;5.37;89.82;102115.16;4986600;28;20030;-77
2020/12/21 09:37:12;;;;;;;14.40;4.63;;;;;;;5.35;90.25;102116.13;5014017;28;20145;-77
2020/12/21 09:39:37;;;;;;;18.35;4.55;;;;;;;5.35;90.55;102114.38;4997554;28;20061;-77
2020/12/21 09:42:04;;;;;;;16.27;4.53;;;;;;;5.38;89.60;102111.59;4998109;28;20405;-76
2020/12/21 09:44:29;;;;;;;16.80;4.15;;;;;;;5.25;90.55;102107.94;4970008;28;20042;-77
2020/12/21 09:46:55;;;;;;;16.17;4.72;;;;;;;5.23;90.11;102113.22;5015911;28;20038;-77
2020/12/21 09:49:20;;;;;;;14.38;4.30;;;;;;;5.31;90.24;102112.00;4982466;28;20501;-77
2020/12/21 09:51:53;;;;;;;17.85;4.50;;;;;;;5.41;89.77;102110.63;4974682;28;20042;-76
2020/12/21 09:54:19;;;;;;;17.75;4.75;;;;;;;5.35;90.39;102109.19;4977906;28;20572;-76
2020/12/21 09:56:48;;;;;;;10.90;3.95;;;;;;;5.41;90.51;102114.06;4977403;28;20134;-77
2020/12/21 09:59:14;;;;;;;17.48;4.35;;;;;;;5.39;90.37;102113.28;4960934;28;20042;-77
2020/12/21 10:01:40;;;;;;;16.75;4.75;;;;;;;5.46;89.73;102101.66;4977620;28;20027;-78
2020/12/21 10:04:05;;;;;;;18.70;4.15;;;;;;;5.43;89.75;102088.78;4960792;28;20045;-76
2020/12/21 10:06:31;;;;;;;21.98;4.38;;;;;;;5.61;88.90;102092.19;4993558;28;20035;-79
2020/12/21 10:08:56;;;;;;;9.77;4.18;;;;;;;5.57;88.70;102095.88;4978493;28;20147;-77
2020/12/21 10:11:22;;;;;;;15.35;4.45;;;;;;;5.53;89.01;102088.31;4987499;28;20393;-78
2020/12/21 10:13:48;;;;;;;11.50;4.38;;;;;;;5.73;88.37;102084.66;4951336;28;20038;-77
2020/12/21 10:16:14;;;;;;;16.60;5.10;;;;;;;5.83;87.69;102080.63;4993144;28;20460;-77
2020/12/21 10:18:40;;;;;;;16.40;4.40;;;;;;;5.99;87.73;102076.31;4974210;28;20213;-77
2020/12/21 10:21:06;;;;;;;17.27;4.50;;;;;;;6.10;86.65;102075.69;4996543;28;20504;-77
2020/12/21 10:23:32;;;;;;;15.20;3.90;;;;;;;6.22;86.85;102077.63;4995891;28;20053;-77
2020/12/21 10:26:01;;;;;;;16.17;4.90;;;;;;;6.29;86.41;102066.88;4997444;28;20038;-77
2020/12/21 10:28:27;;;;;;;12.70;4.03;;;;;;;6.38;85.10;102072.38;5033084;28;20050;-77
2020/12/21 10:30:53;;;;;;;12.75;4.22;;;;;;;6.43;85.68;102066.94;4998179;28;20475;-78
2020/12/21 10:33:18;;;;;;;14.27;3.78;;;;;;;6.38;85.63;102061.97;4997307;28;20038;-78
2020/12/21 10:35:43;;;;;;;15.48;4.18;;;;;;;6.45;85.51;102065.06;4996559;28;20030;-77
2020/12/21 10:38:09;;;;;;;18.35;4.20;;;;;;;6.51;84.77;102054.28;4964165;28;20036;-78
2020/12/21 10:40:34;;;;;;;13.20;4.15;;;;;;;6.60;84.65;102051.16;4979550;28;20042;-78
2020/12/21 10:43:00;;;;;;;17.35;4.50;;;;;;;6.62;84.63;102045.88;4995918;28;20046;-77
2020/12/21 10:45:26;;;;;;;12.70;3.85;;;;;;;6.58;84.89;102045.19;4979133;28;20064;-76
2020/12/21 10:47:52;;;;;;;19.10;5.45;;;;;;;6.67;84.98;102050.78;4996136;28;20031;-78
2020/12/21 10:50:18;;;;;;;12.10;4.05;;;;;;;6.62;84.16;102043.25;4997485;28;20377;-78
2020/12/21 10:52:43;;;;;;;13.00;5.05;;;;;;;6.48;84.90;102043.19;4962278;28;20082;-78
2020/12/21 10:55:11;;;;;;;15.18;3.88;;;;;;;6.36;85.71;102031.72;4966589;28;20422;-77
2020/12/21 10:57:36;;;;;;;10.23;3.85;;;;;;;6.30;85.43;102029.47;5031079;28;20033;-79
2020/12/21 11:00:05;;;;;;;12.75;4.20;;;;;;;6.41;84.42;102027.91;4989458;28;20545;-78
2020/12/21 11:02:31;;;;;;;14.10;4.30;;;;;;;6.53;84.72;102025.53;4969737;28;20034;-77
2020/12/21 11:04:57;;;;;;;12.70;3.70;;;;;;;6.66;83.57;102026.50;4977087;28;20126;-77
2020/12/21 11:07:22;;;;;;;15.73;3.42;;;;;;;6.79;83.54;102024.84;4960859;28;20049;-77
2020/12/21 11:09:48;;;;;;;8.38;3.78;;;;;;;6.82;83.21;102022.06;4976855;28;20666;-78
2020/12/21 11:12:13;;;;;;;11.85;3.72;;;;;;;6.78;83.03;102017.97;4984001;28;20034;-75
2020/12/21 11:14:39;;;;;;;16.98;3.42;;;;;;;6.88;82.56;102014.81;4992013;28;20106;-80
2020/12/21 11:17:04;;;;;;;11.93;3.50;;;;;;;6.93;81.93;102005.78;5001305;28;20030;-78
2020/12/21 11:19:30;;;;;;;13.10;3.63;;;;;;;7.00;81.89;101999.25;4982794;28;20365;-80
2020/12/21 11:21:55;;;;;;;12.13;3.60;;;;;;;7.05;81.42;101990.34;4998337;28;20125;-77
2020/12/21 11:24:21;;;;;;;12.70;3.67;;;;;;;7.14;81.54;101995.81;4975024;28;20026;-78